createdAt,value
2023-03-15T00:02:25.749Z,0.77
2023-03-15T00:04:54.901Z,0.80
2023-03-15T00:07:25.909Z,0.63
2023-03-15T00:09:54.263Z,0.82
2023-03-15T00:12:23.064Z,0.82
2023-03-15T00:14:51.267Z,0.85
2023-03-15T00:17:19.007Z,1.00
2023-03-15T00:19:48.069Z,1.08
2023-03-15T00:22:15.895Z,1.13
2023-03-15T00:24:45.115Z,1.00
2023-03-15T00:27:12.849Z,1.25
2023-03-15T00:29:40.583Z,1.10
2023-03-15T00:32:08.392Z,1.05
2023-03-15T00:34:36.197Z,1.13
2023-03-15T00:37:03.998Z,1.00
2023-03-15T00:39:32.208Z,0.90
2023-03-15T00:42:01.330Z,1.17
2023-03-15T00:44:30.388Z,0.98
2023-03-15T00:46:58.195Z,0.80
2023-03-15T00:49:26.021Z,1.00
2023-03-15T00:51:55.983Z,0.90
2023-03-15T00:54:24.817Z,1.10
2023-03-15T00:56:53.375Z,1.10
2023-03-15T00:59:23.064Z,0.90
2023-03-15T01:01:51.206Z,1.38
2023-03-15T01:04:19.098Z,1.27
2023-03-15T01:06:46.857Z,1.10
2023-03-15T01:09:14.655Z,1.08
2023-03-15T01:11:42.621Z,1.38
2023-03-15T01:14:11.050Z,1.30
2023-03-15T01:16:40.348Z,1.65
2023-03-15T01:19:08.125Z,1.42
2023-03-15T01:21:35.859Z,1.60
2023-03-15T01:24:03.623Z,1.58
2023-03-15T01:26:31.459Z,1.60
2023-03-15T01:28:59.294Z,1.85
2023-03-15T01:31:29.253Z,1.13
2023-03-15T01:33:59.032Z,1.73
2023-03-15T01:36:26.766Z,1.60
2023-03-15T01:38:55.051Z,1.50
2023-03-15T01:41:24.797Z,1.55
2023-03-15T01:43:53.174Z,1.52
2023-03-15T01:46:29.667Z,1.40
2023-03-15T01:49:03.754Z,1.60
2023-03-15T01:51:37.475Z,1.30
2023-03-15T01:54:10.196Z,1.50
2023-03-15T01:56:43.190Z,1.40
2023-03-15T01:59:16.640Z,1.40
2023-03-15T02:01:45.907Z,1.00
2023-03-15T02:04:19.681Z,1.73
2023-03-15T02:06:49.170Z,1.65
2023-03-15T02:09:19.724Z,1.23
2023-03-15T02:11:47.914Z,1.23
2023-03-15T02:14:16.504Z,1.30
2023-03-15T02:16:44.624Z,1.20
2023-03-15T02:19:28.338Z,1.50
2023-03-15T02:22:02.476Z,1.13
2023-03-15T02:24:43.686Z,1.30
2023-03-15T02:27:11.853Z,1.13
2023-03-15T02:29:42.137Z,1.58
2023-03-15T02:32:10.292Z,1.27
2023-03-15T02:34:38.121Z,1.48
2023-03-15T02:37:05.970Z,1.05
2023-03-15T02:39:33.785Z,1.30
2023-03-15T02:42:02.175Z,1.00
2023-03-15T02:44:33.365Z,1.20
2023-03-15T02:47:07.466Z,1.07
2023-03-15T02:49:40.776Z,1.13
2023-03-15T02:52:09.562Z,1.05
2023-03-15T02:54:37.318Z,0.82
2023-03-15T02:57:05.368Z,1.05
2023-03-15T02:59:33.154Z,0.88
2023-03-15T03:02:02.917Z,0.95
2023-03-15T03:04:30.720Z,0.88
2023-03-15T03:06:58.520Z,1.00
2023-03-15T03:09:26.707Z,0.80
2023-03-15T03:11:54.648Z,1.00
2023-03-15T03:14:23.809Z,0.88
2023-03-15T03:16:52.115Z,1.00
2023-03-15T03:19:25.580Z,1.00
2023-03-15T03:21:53.954Z,1.08
2023-03-15T03:24:22.158Z,1.10
2023-03-15T03:26:49.972Z,1.10
2023-03-15T03:29:17.797Z,1.00
2023-03-15T03:31:46.123Z,1.00
2023-03-15T03:34:15.707Z,1.05
2023-03-15T03:36:45.190Z,1.00
2023-03-15T03:39:13.177Z,1.13
2023-03-15T03:41:41.157Z,0.90
2023-03-15T03:44:08.908Z,1.10
2023-03-15T03:46:36.762Z,1.02
2023-03-15T03:49:04.597Z,1.10
2023-03-15T03:51:34.065Z,1.23
2023-03-15T03:54:03.495Z,1.20
2023-03-15T03:56:31.951Z,1.40
2023-03-15T03:58:59.738Z,1.05
2023-03-15T04:01:27.626Z,1.35
2023-03-15T04:03:55.375Z,1.10
2023-03-15T04:06:23.608Z,1.27
2023-03-15T04:08:51.430Z,0.90
2023-03-15T04:11:20.649Z,1.63
2023-03-15T04:13:49.443Z,1.50
2023-03-15T04:16:17.213Z,1.95
2023-03-15T04:18:45.038Z,1.40
2023-03-15T04:21:13.115Z,1.08
2023-03-15T04:23:41.221Z,1.08
2023-03-15T04:26:09.048Z,1.17
2023-03-15T04:28:38.879Z,1.80
2023-03-15T04:31:10.722Z,1.58
2023-03-15T04:33:38.565Z,1.50
2023-03-15T04:36:06.804Z,1.80
2023-03-15T04:38:35.637Z,1.75
2023-03-15T04:41:10.764Z,1.80
2023-03-15T04:43:40.364Z,1.90
2023-03-15T04:46:08.255Z,2.05
2023-03-15T04:48:36.397Z,2.13
2023-03-15T04:51:04.397Z,2.08
2023-03-15T04:53:32.136Z,2.10
2023-03-15T04:55:59.995Z,2.47
2023-03-15T04:58:27.762Z,2.20
2023-03-15T05:00:56.953Z,2.20
2023-03-15T05:03:24.776Z,2.25
2023-03-15T05:05:52.654Z,2.17
2023-03-15T05:08:20.838Z,1.48
2023-03-15T05:10:49.842Z,2.08
2023-03-15T05:13:18.984Z,1.80
2023-03-15T05:15:46.857Z,2.10
2023-03-15T05:18:16.010Z,2.10
2023-03-15T05:20:43.796Z,1.83
2023-03-15T05:23:11.548Z,2.13
2023-03-15T05:25:39.269Z,2.45
2023-03-15T05:28:07.288Z,2.17
2023-03-15T05:30:35.013Z,2.40
2023-03-15T05:33:04.993Z,2.55
2023-03-15T05:35:34.294Z,2.60
2023-03-15T05:38:03.246Z,2.25
2023-03-15T05:40:31.199Z,2.25
2023-03-15T05:42:58.954Z,2.72
2023-03-15T05:45:27.036Z,2.72
2023-03-15T05:47:54.804Z,2.72
2023-03-15T05:50:23.292Z,2.85
2023-03-15T05:52:53.020Z,2.80
2023-03-15T05:55:21.346Z,2.60
2023-03-15T05:57:49.098Z,2.60
2023-03-15T06:00:17.965Z,2.22
2023-03-15T06:02:48.113Z,2.60
2023-03-15T06:05:16.025Z,2.53
2023-03-15T06:07:43.825Z,2.20
2023-03-15T06:10:14.106Z,2.28
2023-03-15T06:12:42.199Z,1.95
2023-03-15T06:15:10.997Z,1.85
2023-03-15T06:17:38.721Z,1.73
2023-03-15T06:20:07.428Z,2.08
2023-03-15T06:22:35.187Z,2.33
2023-03-15T06:25:03.610Z,1.67
2023-03-15T06:27:32.831Z,1.90
2023-03-15T06:30:00.679Z,1.52
2023-03-15T06:32:28.580Z,1.98
2023-03-15T06:34:56.752Z,1.80
2023-03-15T06:37:34.577Z,2.05
2023-03-15T06:40:04.207Z,2.20
2023-03-15T06:42:33.365Z,1.88
2023-03-15T06:45:01.130Z,2.10
2023-03-15T06:47:29.003Z,1.65
2023-03-15T06:49:57.020Z,2.00
2023-03-15T06:52:25.036Z,1.95
2023-03-15T06:54:53.079Z,1.85
2023-03-15T06:57:20.876Z,1.80
2023-03-15T06:59:50.571Z,1.80
2023-03-15T07:02:19.957Z,1.38
2023-03-15T07:04:48.876Z,1.95
2023-03-15T07:07:17.214Z,1.88
2023-03-15T07:09:45.112Z,1.80
2023-03-15T07:12:13.389Z,3.63
2023-03-15T07:14:41.177Z,7.43
2023-03-15T07:17:10.453Z,7.80
2023-03-15T07:19:46.878Z,4.60
2023-03-15T07:22:22.861Z,4.57
2023-03-15T07:24:51.271Z,2.90
2023-03-15T07:27:19.645Z,2.00
2023-03-15T07:29:47.557Z,2.03
2023-03-15T07:32:16.879Z,2.08
2023-03-15T07:34:45.014Z,2.47
2023-03-15T07:37:12.854Z,3.58
2023-03-15T07:39:41.245Z,2.60
2023-03-15T07:42:09.628Z,1.90
2023-03-15T07:44:37.402Z,1.30
2023-03-15T07:47:05.624Z,1.30
2023-03-15T07:49:35.343Z,1.33
2023-03-15T07:52:03.657Z,1.45
2023-03-15T07:54:32.067Z,1.25
2023-03-15T07:56:59.910Z,1.20
2023-03-15T07:59:27.677Z,1.38
2023-03-15T08:01:55.808Z,1.60
2023-03-15T08:04:23.681Z,1.50
2023-03-15T08:06:54.088Z,1.40
2023-03-15T08:09:21.857Z,1.30
2023-03-15T08:11:49.696Z,1.30
2023-03-15T08:14:17.532Z,1.13
2023-03-15T08:16:45.336Z,1.20
2023-03-15T08:19:13.244Z,4.05
2023-03-15T08:21:45.395Z,1.38
2023-03-15T08:24:15.138Z,1.40
2023-03-15T08:26:43.639Z,0.88
2023-03-15T08:29:11.420Z,1.20
2023-03-15T08:31:39.665Z,1.30
2023-03-15T08:34:07.613Z,1.60
2023-03-15T08:36:35.409Z,0.90
2023-03-15T08:39:05.387Z,1.23
2023-03-15T08:41:34.653Z,1.08
2023-03-15T08:44:02.580Z,1.00
2023-03-15T08:46:30.423Z,0.90
2023-03-15T08:48:58.171Z,0.82
2023-03-15T08:51:26.573Z,1.38
2023-03-15T08:53:54.360Z,0.90
2023-03-15T08:56:22.205Z,0.80
2023-03-15T08:58:51.648Z,1.10
2023-03-15T09:01:19.442Z,0.90
2023-03-15T09:03:50.791Z,0.98
2023-03-15T09:06:18.888Z,0.88
2023-03-15T09:08:46.648Z,0.93
2023-03-15T09:11:14.903Z,1.50
2023-03-15T09:13:42.709Z,1.08
2023-03-15T09:16:11.832Z,0.70
2023-03-15T09:18:44.154Z,0.68
2023-03-15T09:21:12.213Z,0.80
2023-03-15T09:23:40.030Z,0.85
2023-03-15T09:26:07.860Z,1.02
2023-03-15T09:28:35.630Z,0.88
2023-03-15T09:31:06.785Z,0.80
2023-03-15T09:33:35.926Z,1.40
2023-03-15T09:36:04.150Z,0.90
2023-03-15T09:38:31.947Z,0.82
2023-03-15T09:41:00.682Z,1.02
2023-03-15T09:43:45.355Z,0.60
2023-03-15T09:46:27.702Z,0.70
2023-03-15T09:49:04.217Z,0.98
2023-03-15T09:51:40.674Z,0.75
2023-03-15T09:54:13.798Z,1.10
2023-03-15T09:56:46.651Z,0.90
2023-03-15T09:59:17.578Z,0.65
2023-03-15T10:01:46.821Z,0.77
2023-03-15T10:04:26.516Z,0.70
2023-03-15T10:06:56.850Z,0.70
2023-03-15T10:09:26.882Z,0.50
2023-03-15T10:12:03.582Z,0.80
2023-03-15T10:14:47.285Z,0.80
2023-03-15T10:17:18.275Z,0.77
2023-03-15T10:19:51.273Z,0.60
2023-03-15T10:22:26.612Z,0.60
2023-03-15T10:24:58.335Z,0.77
2023-03-15T10:27:35.636Z,0.90
2023-03-15T10:30:04.001Z,0.85
2023-03-15T10:32:39.215Z,0.60
2023-03-15T10:35:15.855Z,0.70
2023-03-15T10:37:44.195Z,0.70
2023-03-15T10:40:16.453Z,0.90
2023-03-15T10:42:45.688Z,0.50
2023-03-15T10:45:20.957Z,0.57
2023-03-15T10:47:57.605Z,0.63
2023-03-15T10:50:32.928Z,0.75
2023-03-15T10:53:03.903Z,0.50
2023-03-15T10:55:34.697Z,0.45
2023-03-15T10:58:19.581Z,0.43
2023-03-15T11:00:52.629Z,0.50
2023-03-15T11:03:22.307Z,0.30
2023-03-15T11:05:53.483Z,0.40
2023-03-15T11:08:24.053Z,0.70
2023-03-15T11:10:58.537Z,0.75
2023-03-15T11:13:28.305Z,1.13
2023-03-15T11:16:03.925Z,0.60
2023-03-15T11:18:36.207Z,0.40
2023-03-15T11:21:09.421Z,0.40
2023-03-15T11:23:39.460Z,0.55
2023-03-15T11:26:08.667Z,0.60
2023-03-15T11:28:39.143Z,0.52
2023-03-15T11:31:07.518Z,0.80
2023-03-15T11:33:44.107Z,0.70
2023-03-15T11:36:18.854Z,0.60
2023-03-15T11:38:47.409Z,0.70
2023-03-15T11:41:28.827Z,0.52
2023-03-15T11:44:04.154Z,0.57
2023-03-15T11:46:36.909Z,0.82
2023-03-15T11:49:14.283Z,0.93
2023-03-15T11:51:43.756Z,0.68
2023-03-15T11:54:15.461Z,0.65
2023-03-15T11:56:50.180Z,0.70
2023-03-15T11:59:20.100Z,0.70
2023-03-15T12:01:50.282Z,0.80
2023-03-15T12:04:43.915Z,1.10
2023-03-15T12:07:31.715Z,0.60
2023-03-15T12:10:21.175Z,0.60
2023-03-15T12:12:49.761Z,0.77
2023-03-15T12:15:49.171Z,0.70
2023-03-15T12:18:39.766Z,1.05
2023-03-15T12:21:21.562Z,0.50
2023-03-15T12:23:59.871Z,0.95
2023-03-15T12:26:44.292Z,0.77
2023-03-15T12:29:23.125Z,0.40
2023-03-15T12:31:58.671Z,0.77
2023-03-15T12:34:31.659Z,0.52
2023-03-15T12:37:05.626Z,0.65
2023-03-15T12:39:41.742Z,0.55
2023-03-15T12:42:28.351Z,0.70
2023-03-15T12:44:56.480Z,1.10
2023-03-15T12:47:24.242Z,0.90
2023-03-15T12:49:52.128Z,0.80
2023-03-15T12:52:42.867Z,0.80
2023-03-15T12:55:17.073Z,0.82
2023-03-15T12:57:50.195Z,1.17
2023-03-15T13:00:20.666Z,2.72
2023-03-15T13:02:51.793Z,1.52
2023-03-15T13:05:26.771Z,0.93
2023-03-15T13:08:05.242Z,0.30
2023-03-15T13:10:58.190Z,1.02
2023-03-15T13:13:54.249Z,0.80
2023-03-15T13:16:31.043Z,0.70
2023-03-15T13:19:11.566Z,0.63
2023-03-15T13:21:49.714Z,0.50
2023-03-15T13:24:23.144Z,0.50
2023-03-15T13:27:01.356Z,0.88
2023-03-15T13:29:32.334Z,1.23
2023-03-15T13:32:13.922Z,0.93
2023-03-15T13:34:42.961Z,0.60
2023-03-15T13:37:15.948Z,1.05
2023-03-15T13:39:58.219Z,0.70
2023-03-15T13:45:15.256Z,0.60
2023-03-15T13:47:44.826Z,0.57
2023-03-15T13:50:16.384Z,0.90
2023-03-15T13:52:45.524Z,0.77
2023-03-15T13:55:17.359Z,0.85
2023-03-15T13:57:46.664Z,0.70
2023-03-15T14:00:19.225Z,0.60
2023-03-15T14:02:49.928Z,0.65
2023-03-15T14:05:20.201Z,0.60
2023-03-15T14:07:51.175Z,0.60
2023-03-15T14:10:30.140Z,0.60
2023-03-15T14:13:01.364Z,0.65
2023-03-15T14:15:39.287Z,0.60
2023-03-15T14:18:18.208Z,0.80
2023-03-15T14:20:48.173Z,0.85
2023-03-15T14:23:19.585Z,0.60
2023-03-15T14:25:52.497Z,0.80
2023-03-15T14:28:21.988Z,1.00
2023-03-15T14:30:55.123Z,0.77
2023-03-15T14:33:31.332Z,0.95
2023-03-15T14:36:00.557Z,0.70
2023-03-15T14:38:34.916Z,0.80
2023-03-15T14:41:20.360Z,0.80
2023-03-15T14:43:49.474Z,0.77
2023-03-15T14:46:17.449Z,0.88
2023-03-15T14:48:45.334Z,0.68
2023-03-15T14:51:17.351Z,0.80
2023-03-15T14:53:45.914Z,0.75
2023-03-15T14:56:14.519Z,0.75
2023-03-15T14:58:43.652Z,0.63
2023-03-15T15:01:14.990Z,0.60
2023-03-15T15:03:45.675Z,0.68
2023-03-15T15:06:15.693Z,0.50
2023-03-15T15:08:45.795Z,0.60
2023-03-15T15:11:14.477Z,0.80
2023-03-15T15:13:42.829Z,0.85
2023-03-15T15:16:12.030Z,0.60
2023-03-15T15:18:39.910Z,0.90
2023-03-15T15:21:14.329Z,0.70
2023-03-15T15:23:57.363Z,0.82
2023-03-15T15:26:28.138Z,0.80
2023-03-15T15:28:56.712Z,0.82
2023-03-15T15:31:27.521Z,0.50
2023-03-15T15:33:56.810Z,0.63
2023-03-15T15:36:28.093Z,0.70
2023-03-15T15:38:56.766Z,0.52
2023-03-15T15:41:26.852Z,0.80
2023-03-15T15:43:55.203Z,0.80
2023-03-15T15:46:24.012Z,0.70
2023-03-15T15:48:53.679Z,0.90
2023-03-15T15:51:30.350Z,0.77
2023-03-15T15:54:00.262Z,0.93
2023-03-15T15:56:33.095Z,0.75
2023-03-15T15:59:03.061Z,0.73
2023-03-15T16:01:31.373Z,1.38
2023-03-15T16:04:00.710Z,2.88
2023-03-15T16:06:28.764Z,0.80
2023-03-15T16:08:57.320Z,0.60
2023-03-15T16:11:25.262Z,0.65
2023-03-15T16:13:55.015Z,0.60
2023-03-15T16:16:23.618Z,0.85
2023-03-15T16:18:51.480Z,0.90
2023-03-15T16:21:28.042Z,0.93
2023-03-15T16:24:00.456Z,1.15
2023-03-15T16:26:28.970Z,0.88
2023-03-15T16:28:57.143Z,1.05
2023-03-15T16:31:25.022Z,1.00
2023-03-15T16:33:52.856Z,0.60
2023-03-15T16:36:23.816Z,0.75
2023-03-15T16:38:51.976Z,0.88
2023-03-15T16:41:19.862Z,0.85
2023-03-15T16:43:49.458Z,0.55
2023-03-15T16:46:18.199Z,0.80
2023-03-15T16:48:46.104Z,1.00
2023-03-15T16:51:17.073Z,0.80
2023-03-15T16:53:46.341Z,1.17
2023-03-15T16:56:15.915Z,0.57
2023-03-15T16:58:45.298Z,0.70
2023-03-15T17:01:13.161Z,0.77
2023-03-15T17:03:40.984Z,0.90
2023-03-15T17:06:17.386Z,1.42
2023-03-15T17:08:46.912Z,1.08
2023-03-15T17:11:15.066Z,0.80
2023-03-15T17:13:43.272Z,0.90
2023-03-15T17:16:13.097Z,0.70
2023-03-15T17:18:43.391Z,0.75
2023-03-15T17:21:13.881Z,0.82
2023-03-15T17:23:42.244Z,0.70
2023-03-15T17:26:13.532Z,0.90
2023-03-15T17:28:42.602Z,0.90
2023-03-15T17:31:24.454Z,0.60
2023-03-15T17:33:53.034Z,0.70
2023-03-15T17:36:23.747Z,0.68
2023-03-15T17:38:52.237Z,0.77
2023-03-15T17:41:24.259Z,1.00
2023-03-15T17:43:52.788Z,0.80
2023-03-15T17:46:22.565Z,0.60
2023-03-15T17:48:50.401Z,0.65
2023-03-15T17:51:21.871Z,1.20
2023-03-15T17:53:50.040Z,1.13
2023-03-15T17:56:18.367Z,0.90
2023-03-15T17:58:48.064Z,0.90
2023-03-15T18:01:18.807Z,0.93
2023-03-15T18:03:47.048Z,0.90
2023-03-15T18:06:15.269Z,1.13
2023-03-15T18:08:44.042Z,1.00
2023-03-15T18:11:17.284Z,1.02
2023-03-15T18:13:45.175Z,0.80
2023-03-15T18:16:14.628Z,0.70
2023-03-15T18:18:42.682Z,1.25
2023-03-15T18:21:14.249Z,0.90
2023-03-15T18:23:42.334Z,1.13
2023-03-15T18:26:10.936Z,0.95
2023-03-15T18:28:38.764Z,0.80
2023-03-15T18:31:12.341Z,0.95
2023-03-15T18:33:41.967Z,0.75
2023-03-15T18:36:10.120Z,0.80
2023-03-15T18:38:38.000Z,0.70
2023-03-15T18:41:20.503Z,0.60
2023-03-15T18:43:51.438Z,0.80
2023-03-15T18:46:20.312Z,0.57
2023-03-15T18:48:49.935Z,0.70
2023-03-15T18:51:18.538Z,0.70
2023-03-15T18:53:46.818Z,0.57
2023-03-15T18:56:19.255Z,0.95
2023-03-15T18:58:47.439Z,0.63
2023-03-15T19:01:15.604Z,0.80
2023-03-15T19:03:44.133Z,0.70
2023-03-15T19:06:14.633Z,0.88
2023-03-15T19:08:43.186Z,0.68
2023-03-15T19:11:11.639Z,0.45
2023-03-15T19:13:39.803Z,0.63
2023-03-15T19:16:07.982Z,0.60
2023-03-15T19:18:35.859Z,0.82
2023-03-15T19:21:03.796Z,0.82
2023-03-15T19:23:34.256Z,1.45
2023-03-15T19:26:02.077Z,0.90
2023-03-15T19:28:30.419Z,0.65
2023-03-15T19:30:58.550Z,0.85
2023-03-15T19:33:26.479Z,0.60
2023-03-15T19:35:54.250Z,0.50
2023-03-15T19:38:22.744Z,0.60
2023-03-15T19:40:55.235Z,0.68
2023-03-15T19:43:24.119Z,0.80
2023-03-15T19:45:52.001Z,0.77
2023-03-15T19:48:19.826Z,0.80
2023-03-15T19:50:48.591Z,0.65
2023-03-15T19:53:16.439Z,0.65
2023-03-15T19:55:44.217Z,0.90
2023-03-15T19:58:13.307Z,0.90
2023-03-15T20:00:41.191Z,0.80
2023-03-15T20:03:09.089Z,0.80
2023-03-15T20:05:37.686Z,0.45
2023-03-15T20:08:05.930Z,0.60
2023-03-15T20:10:33.725Z,0.65
2023-03-15T20:13:01.527Z,0.73
2023-03-15T20:15:32.536Z,0.63
2023-03-15T20:18:00.502Z,0.80
2023-03-15T20:20:28.942Z,0.80
2023-03-15T20:22:57.065Z,0.60
2023-03-15T20:25:25.255Z,0.70
2023-03-15T20:27:53.808Z,0.57
2023-03-15T20:30:23.146Z,0.57
2023-03-15T20:32:53.925Z,0.70
2023-03-15T20:35:22.439Z,0.68
2023-03-15T20:37:53.048Z,0.80
2023-03-15T20:40:22.469Z,0.90
2023-03-15T20:42:50.685Z,0.98
2023-03-15T20:45:19.219Z,1.15
2023-03-15T20:47:47.216Z,0.70
2023-03-15T20:50:16.981Z,1.05
2023-03-15T20:52:44.873Z,0.95
2023-03-15T20:55:13.702Z,1.27
2023-03-15T20:57:43.024Z,1.73
2023-03-15T21:00:18.724Z,1.52
2023-03-15T21:02:48.080Z,1.10
2023-03-15T21:05:18.489Z,0.65
2023-03-15T21:07:47.431Z,1.05
2023-03-15T21:10:15.705Z,0.85
2023-03-15T21:12:45.550Z,0.98
2023-03-15T21:15:17.502Z,0.90
2023-03-15T21:17:46.080Z,0.90
2023-03-15T21:20:15.660Z,1.15
2023-03-15T21:22:45.533Z,0.82
2023-03-15T21:25:13.829Z,1.50
2023-03-15T21:27:42.099Z,0.70
2023-03-15T21:30:14.252Z,0.95
2023-03-15T21:35:10.881Z,0.80
2023-03-15T21:37:38.631Z,0.60
2023-03-15T21:40:09.038Z,0.85
2023-03-15T21:42:37.123Z,0.80
2023-03-15T21:45:07.092Z,0.90
2023-03-15T21:47:34.865Z,1.15
2023-03-15T21:50:02.657Z,0.88
2023-03-15T21:52:30.422Z,0.70
2023-03-15T21:54:58.197Z,0.70
2023-03-15T21:57:27.406Z,0.75
2023-03-15T21:59:55.176Z,0.70
2023-03-15T22:02:22.896Z,0.80
2023-03-15T22:04:50.735Z,0.73
2023-03-15T22:07:18.731Z,0.60
2023-03-15T22:09:46.595Z,0.60
2023-03-15T22:12:15.558Z,0.95
2023-03-15T22:14:47.310Z,0.68
2023-03-15T22:17:15.383Z,0.90
2023-03-15T22:19:43.154Z,0.88
2023-03-15T22:22:11.588Z,1.10
2023-03-15T22:24:39.583Z,0.70
2023-03-15T22:27:07.453Z,1.10
2023-03-15T22:29:35.589Z,1.75
2023-03-15T22:32:05.042Z,1.58
2023-03-15T22:34:34.322Z,1.58
2023-03-15T22:37:02.485Z,1.48
2023-03-15T22:39:30.398Z,1.38
2023-03-15T22:41:58.151Z,1.45
2023-03-15T22:44:26.025Z,1.65
2023-03-15T22:46:53.985Z,2.00
2023-03-15T22:49:23.721Z,1.98
2023-03-15T22:51:51.498Z,2.28
2023-03-15T22:54:19.415Z,2.00
2023-03-15T22:56:47.103Z,2.00
2023-03-15T22:59:15.115Z,2.35
2023-03-15T23:01:42.979Z,1.92
2023-03-15T23:04:11.046Z,2.47
2023-03-15T23:06:40.197Z,2.05
2023-03-15T23:09:07.954Z,2.35
2023-03-15T23:11:35.957Z,1.75
2023-03-15T23:14:04.089Z,2.00
2023-03-15T23:16:31.958Z,1.73
2023-03-15T23:19:00.010Z,1.40
2023-03-15T23:21:27.860Z,1.48
2023-03-15T23:23:57.056Z,1.65
2023-03-15T23:26:25.522Z,1.80
2023-03-15T23:28:53.738Z,1.55
2023-03-15T23:31:21.901Z,1.42
2023-03-15T23:33:49.745Z,1.38
2023-03-15T23:36:17.476Z,1.15
2023-03-15T23:38:45.243Z,1.52
2023-03-15T23:41:14.412Z,1.25
2023-03-15T23:43:42.485Z,1.35
2023-03-15T23:46:10.340Z,1.63
2023-03-15T23:48:38.149Z,1.27
2023-03-15T23:51:06.114Z,1.40
2023-03-15T23:53:33.842Z,1.35
2023-03-15T23:56:01.725Z,1.38
2023-03-15T23:58:31.046Z,1.35
